Time;durP1;ratioP1;P1;durP2;ratioP2;P2;SDS_P1;SDS_P2;PMS_P1;PMS_P2;Temp;Humidity;BMP_temperature;BMP_pressure;BME280_temperature;BME280_humidity;BME280_pressure;Samples;Min_cycle;Max_cycle;Signal;HPM_P1;HPM_P2
2022/08/22 00:02:12;;;;;;;7.07;3.58;;;;;;;;;;4973455;28;20059;-77
2022/08/22 00:04:47;;;;;;;13.98;4.50;;;;;;;;;;4971742;28;20110;-76
2022/08/22 00:07:17;;;;;;;11.25;4.35;;;;;;;;;;4981442;28;20059;-77
2022/08/22 00:09:44;;;;;;;13.98;4.00;;;;;;;;;;4985635;28;20061;-77
2022/08/22 00:12:23;;;;;;;11.52;4.28;;;;;;;;;;4984162;28;20050;-77
2022/08/22 00:14:58;;;;;;;11.07;4.18;;;;;;;;;;4975256;28;20826;-76
2022/08/22 00:17:39;;;;;;;10.32;4.07;;;;;;;;;;4974922;28;20077;-76
2022/08/22 00:20:26;;;;;;;6.97;3.70;;;;;;;;;;4981384;28;20483;-76
2022/08/22 00:23:14;;;;;;;9.63;4.15;;;;;;;;;;4992373;28;20051;-77
2022/08/22 00:25:54;;;;;;;8.32;3.92;;;;;;;;;;4975054;28;20093;-77
2022/08/22 00:28:29;;;;;;;13.40;3.95;;;;;;;;;;4981747;28;20215;-76
2022/08/22 00:31:00;;;;;;;10.50;3.72;;;;;;;;;;4977152;28;20103;-76
2022/08/22 00:33:47;;;;;;;10.23;3.70;;;;;;;;;;4977074;28;20082;-77
2022/08/22 00:36:15;;;;;;;12.05;3.90;;;;;;;;;;4980772;28;20052;-77
2022/08/22 00:38:46;;;;;;;11.13;4.20;;;;;;;;;;4975965;28;20051;-78
2022/08/22 00:41:21;;;;;;;16.40;4.72;;;;;;;;;;4980005;28;20091;-77
2022/08/22 00:43:48;;;;;;;9.23;4.15;;;;;;;;;;4982641;28;20059;-76
2022/08/22 00:46:15;;;;;;;12.02;4.50;;;;;;;;;;4972741;28;20055;-77
2022/08/22 00:48:45;;;;;;;13.13;4.40;;;;;;;;;;4982059;28;20884;-78
2022/08/22 00:51:19;;;;;;;10.65;4.38;;;;;;;;;;4981723;28;20876;-76
2022/08/22 00:54:00;;;;;;;16.15;4.60;;;;;;;;;;4981564;28;20501;-76
2022/08/22 00:56:30;;;;;;;11.88;4.90;;;;;;;;;;4978690;28;20058;-76
2022/08/22 00:59:08;;;;;;;8.25;4.68;;;;;;;;;;4977266;28;20059;-77
2022/08/22 01:02:09;;;;;;;11.37;4.17;;;;;;;;;;4976954;28;20055;-77
2022/08/22 01:04:40;;;;;;;12.40;4.30;;;;;;;;;;4986426;28;20055;-76
2022/08/22 01:07:25;;;;;;;9.65;4.25;;;;;;;;;;4983403;28;20054;-77
2022/08/22 01:10:13;;;;;;;11.77;4.38;;;;;;;;;;4974568;28;20055;-76
2022/08/22 01:13:02;;;;;;;12.32;4.45;;;;;;;;;;4986414;28;21028;-77
2022/08/22 01:15:32;;;;;;;13.18;4.75;;;;;;;;;;4973547;28;20055;-78
2022/08/22 01:18:18;;;;;;;16.80;4.82;;;;;;;;;;4983125;28;20054;-77
2022/08/22 01:21:04;;;;;;;14.40;4.75;;;;;;;;;;4977653;28;20061;-77
2022/08/22 01:23:48;;;;;;;11.27;4.75;;;;;;;;;;4978644;28;20083;-77
2022/08/22 01:26:15;;;;;;;9.55;4.22;;;;;;;;;;4976861;28;20055;-76
2022/08/22 01:28:51;;;;;;;11.75;5.00;;;;;;;;;;4978453;28;20795;-77
2022/08/22 01:31:22;;;;;;;10.23;4.88;;;;;;;;;;4979568;28;20517;-77
2022/08/22 01:34:07;;;;;;;13.00;4.75;;;;;;;;;;4984638;28;20733;-76
2022/08/22 01:36:58;;;;;;;10.82;4.70;;;;;;;;;;4986785;28;20055;-77
2022/08/22 01:39:25;;;;;;;10.45;4.13;;;;;;;;;;4982699;28;20054;-77
2022/08/22 01:41:58;;;;;;;10.85;4.53;;;;;;;;;;4979296;28;20051;-76
2022/08/22 01:44:36;;;;;;;11.15;4.80;;;;;;;;;;4978975;28;20046;-76
2022/08/22 01:47:05;;;;;;;12.10;4.18;;;;;;;;;;4983078;28;20059;-77
2022/08/22 01:49:33;;;;;;;10.35;4.15;;;;;;;;;;4976819;28;20059;-77
2022/08/22 01:52:18;;;;;;;10.32;4.30;;;;;;;;;;4988235;28;20054;-77
2022/08/22 01:54:50;;;;;;;12.18;4.03;;;;;;;;;;4985304;28;20051;-77
2022/08/22 01:57:18;;;;;;;12.75;4.50;;;;;;;;;;4978226;28;20058;-77
2022/08/22 01:59:51;;;;;;;14.07;4.82;;;;;;;;;;4986039;28;20055;-78
2022/08/22 02:02:18;;;;;;;9.57;4.07;;;;;;;;;;4989425;28;20051;-77
2022/08/22 02:05:04;;;;;;;13.57;4.68;;;;;;;;;;4990386;28;20141;-77
2022/08/22 02:07:39;;;;;;;12.07;4.32;;;;;;;;;;4976695;28;20051;-77
2022/08/22 02:10:23;;;;;;;13.02;4.45;;;;;;;;;;4979523;28;20055;-77
2022/08/22 02:12:50;;;;;;;;;;;;;;;;;;4981535;28;20057;-77
2022/08/22 02:15:17;;;;;;;11.38;3.85;;;;;;;;;;4980115;28;44475;-78
2022/08/22 02:17:47;;;;;;;11.10;4.10;;;;;;;;;;4983531;28;20051;-76
2022/08/22 02:20:20;;;;;;;12.18;4.28;;;;;;;;;;4983831;28;20735;-77
2022/08/22 02:22:52;;;;;;;10.77;4.53;;;;;;;;;;4976578;28;20051;-77
2022/08/22 02:25:32;;;;;;;12.23;4.70;;;;;;;;;;4987589;28;20509;-77
2022/08/22 02:28:06;;;;;;;12.65;4.43;;;;;;;;;;4980303;28;20051;-77
2022/08/22 02:30:48;;;;;;;9.77;4.03;;;;;;;;;;4986850;28;20177;-77
2022/08/22 02:33:25;;;;;;;14.48;4.88;;;;;;;;;;4986517;28;20051;-76
2022/08/22 02:36:05;;;;;;;12.93;4.78;;;;;;;;;;4980796;28;20059;-77
2022/08/22 02:38:38;;;;;;;14.35;4.70;;;;;;;;;;4982015;28;20066;-77
2022/08/22 02:41:23;;;;;;;13.18;4.80;;;;;;;;;;4979130;28;20055;-77
2022/08/22 02:43:54;;;;;;;16.77;4.50;;;;;;;;;;4982579;28;20859;-78
2022/08/22 02:46:40;;;;;;;14.23;5.15;;;;;;;;;;4982866;28;20067;-77
2022/08/22 02:49:45;;;;;;;10.90;4.88;;;;;;;;;;4999803;28;20942;-77
2022/08/22 02:52:17;;;;;;;15.38;4.35;;;;;;;;;;4959852;28;20052;-77
2022/08/22 02:54:59;;;;;;;11.93;4.30;;;;;;;;;;4957622;28;20131;-76
2022/08/22 02:57:31;;;;;;;10.83;3.80;;;;;;;;;;4956424;28;20055;-77
2022/08/22 03:00:14;;;;;;;8.82;4.15;;;;;;;;;;4959035;28;20287;-78
2022/08/22 03:03:06;;;;;;;11.57;4.30;;;;;;;;;;4957027;28;20816;-77
2022/08/22 03:05:35;;;;;;;8.85;3.63;;;;;;;;;;4956959;28;20612;-77
2022/08/22 03:08:08;;;;;;;17.75;4.82;;;;;;;;;;4954079;28;20055;-77
2022/08/22 03:10:41;;;;;;;21.50;4.55;;;;;;;;;;4959323;28;20060;-77
2022/08/22 03:13:13;;;;;;;13.30;3.95;;;;;;;;;;4960410;28;20055;-77
2022/08/22 03:15:53;;;;;;;12.77;4.10;;;;;;;;;;4955156;28;20051;-76
2022/08/22 03:18:30;;;;;;;12.43;3.92;;;;;;;;;;4959293;28;20055;-77
2022/08/22 03:21:15;;;;;;;14.45;4.50;;;;;;;;;;4956546;28;20056;-76
2022/08/22 03:23:47;;;;;;;19.50;4.13;;;;;;;;;;4975466;28;20051;-76
2022/08/22 03:26:22;;;;;;;12.30;4.38;;;;;;;;;;4977958;28;20054;-77
2022/08/22 03:28:51;;;;;;;10.93;4.20;;;;;;;;;;4980952;28;20421;-78
2022/08/22 03:31:26;;;;;;;15.50;5.00;;;;;;;;;;4986375;28;20054;-76
2022/08/22 03:34:19;;;;;;;9.90;4.10;;;;;;;;;;4987717;28;20137;-76
2022/08/22 03:36:58;;;;;;;9.80;4.22;;;;;;;;;;4975553;28;20055;-77
2022/08/22 03:39:37;;;;;;;13.60;3.85;;;;;;;;;;4979214;28;20054;-77
2022/08/22 03:42:24;;;;;;;10.77;4.07;;;;;;;;;;4987569;28;20805;-77
2022/08/22 03:45:00;;;;;;;9.68;3.97;;;;;;;;;;4981360;28;20046;-77
2022/08/22 03:47:45;;;;;;;11.13;4.18;;;;;;;;;;4980725;28;20051;-77
2022/08/22 03:50:19;;;;;;;13.55;4.32;;;;;;;;;;4977970;28;20051;-77
2022/08/22 03:53:07;;;;;;;17.30;4.45;;;;;;;;;;4979400;28;20051;-77
2022/08/22 03:55:45;;;;;;;11.65;4.63;;;;;;;;;;4976508;28;20051;-78
2022/08/22 03:58:24;;;;;;;10.52;4.05;;;;;;;;;;4984009;28;20054;-77
2022/08/22 04:01:06;;;;;;;12.00;4.00;;;;;;;;;;4976282;28;20091;-78
2022/08/22 04:03:52;;;;;;;13.63;4.18;;;;;;;;;;4979569;28;20133;-77
2022/08/22 04:06:21;;;;;;;9.93;3.60;;;;;;;;;;4981622;28;20736;-77
2022/08/22 04:08:48;;;;;;;15.15;3.92;;;;;;;;;;4982235;28;20098;-77
2022/08/22 04:11:36;;;;;;;12.63;3.72;;;;;;;;;;4973357;28;20191;-77
2022/08/22 04:14:23;;;;;;;13.85;3.80;;;;;;;;;;4984264;28;20498;-76
2022/08/22 04:17:04;;;;;;;12.77;4.18;;;;;;;;;;4978787;28;20055;-78
2022/08/22 04:19:50;;;;;;;8.35;3.72;;;;;;;;;;4992714;28;20963;-77
2022/08/22 04:22:36;;;;;;;11.40;3.55;;;;;;;;;;4986959;28;20051;-77
2022/08/22 04:25:03;;;;;;;8.30;3.35;;;;;;;;;;4975323;28;20788;-77
2022/08/22 04:27:48;;;;;;;16.60;4.38;;;;;;;;;;4979641;28;20082;-76
2022/08/22 04:30:15;;;;;;;13.82;3.55;;;;;;;;;;4983672;28;20914;-77
2022/08/22 04:32:42;;;;;;;12.90;4.20;;;;;;;;;;4986671;28;21318;-77
2022/08/22 04:35:09;;;;;;;12.15;3.53;;;;;;;;;;4980530;28;20051;-77
2022/08/22 04:37:57;;;;;;;11.07;4.20;;;;;;;;;;4977442;28;20058;-77
2022/08/22 04:40:36;;;;;;;14.77;4.47;;;;;;;;;;4968493;28;20138;-76
2022/08/22 04:43:16;;;;;;;10.05;3.38;;;;;;;;;;4980171;28;20050;-77
2022/08/22 04:45:51;;;;;;;9.77;3.60;;;;;;;;;;4982082;28;20086;-77
2022/08/22 04:48:18;;;;;;;10.20;3.50;;;;;;;;;;4978958;28;20059;-77
2022/08/22 04:50:49;;;;;;;16.35;4.40;;;;;;;;;;4981290;28;20090;-77
2022/08/22 04:53:40;;;;;;;14.30;3.80;;;;;;;;;;4976047;28;20141;-76
2022/08/22 04:56:16;;;;;;;13.38;4.00;;;;;;;;;;4982584;28;20061;-76
2022/08/22 04:59:01;;;;;;;8.88;4.10;;;;;;;;;;4980967;28;20153;-76
2022/08/22 05:01:45;;;;;;;11.63;3.80;;;;;;;;;;4983520;28;20062;-76
2022/08/22 05:04:19;;;;;;;14.20;4.10;;;;;;;;;;4975802;28;20133;-77
2022/08/22 05:06:48;;;;;;;11.95;4.03;;;;;;;;;;4985350;28;20059;-77
2022/08/22 05:09:19;;;;;;;13.85;4.28;;;;;;;;;;4972084;28;20054;-76
2022/08/22 05:11:51;;;;;;;10.70;3.83;;;;;;;;;;4981247;28;20107;-77
2022/08/22 05:14:25;;;;;;;15.68;3.65;;;;;;;;;;4978765;28;20051;-76
2022/08/22 05:16:53;;;;;;;9.63;3.92;;;;;;;;;;4981153;28;20051;-76
2022/08/22 05:19:23;;;;;;;11.68;4.18;;;;;;;;;;4980273;28;20066;-77
2022/08/22 05:21:57;;;;;;;9.63;4.20;;;;;;;;;;4987390;28;20052;-76
2022/08/22 05:24:37;;;;;;;13.25;3.70;;;;;;;;;;4997135;28;20081;-77
2022/08/22 05:27:10;;;;;;;11.60;4.25;;;;;;;;;;4982906;28;20080;-76
2022/08/22 05:29:37;;;;;;;;;;;;;;;;;;4978602;28;20517;-76
2022/08/22 05:32:06;;;;;;;8.80;4.07;;;;;;;;;;4982160;28;42661;-76
2022/08/22 05:34:37;;;;;;;7.90;3.97;;;;;;;;;;4987528;28;20048;-75
2022/08/22 05:37:08;;;;;;;18.65;4.57;;;;;;;;;;4982879;28;20085;-77
2022/08/22 05:39:37;;;;;;;13.52;4.63;;;;;;;;;;4980419;28;20058;-76
2022/08/22 05:42:11;;;;;;;12.20;4.10;;;;;;;;;;4991412;28;20126;-78
2022/08/22 05:44:39;;;;;;;13.88;4.40;;;;;;;;;;4984752;28;20519;-76
2022/08/22 05:47:17;;;;;;;10.73;4.05;;;;;;;;;;4980222;28;20053;-75
2022/08/22 05:49:54;;;;;;;9.02;4.05;;;;;;;;;;4979059;28;20055;-76
2022/08/22 05:52:30;;;;;;;9.80;4.25;;;;;;;;;;4972838;28;20051;-76
2022/08/22 05:55:16;;;;;;;9.02;4.30;;;;;;;;;;4978768;28;20050;-76
2022/08/22 05:57:46;;;;;;;11.43;4.20;;;;;;;;;;4982327;28;20051;-76
2022/08/22 06:00:19;;;;;;;10.80;4.57;;;;;;;;;;4985579;28;20054;-77
2022/08/22 06:02:52;;;;;;;9.75;4.10;;;;;;;;;;4982619;28;20054;-76
2022/08/22 06:05:24;;;;;;;13.40;4.78;;;;;;;;;;4977878;28;20061;-76
2022/08/22 06:07:55;;;;;;;9.05;4.60;;;;;;;;;;4979682;28;20065;-76
2022/08/22 06:10:36;;;;;;;15.38;4.80;;;;;;;;;;4983493;28;20054;-76
2022/08/22 06:13:10;;;;;;;12.50;4.80;;;;;;;;;;4977707;28;20062;-76
2022/08/22 06:15:53;;;;;;;12.60;5.00;;;;;;;;;;4986483;28;20048;-75
2022/08/22 06:18:21;;;;;;;13.40;4.75;;;;;;;;;;4973836;28;20118;-76
2022/08/22 06:20:52;;;;;;;12.60;5.00;;;;;;;;;;4978263;28;20059;-76
2022/08/22 06:23:25;;;;;;;16.73;5.00;;;;;;;;;;4980202;28;20059;-76
2022/08/22 06:25:55;;;;;;;11.35;4.70;;;;;;;;;;4971635;28;20058;-76
2022/08/22 06:28:24;;;;;;;8.95;4.30;;;;;;;;;;4995561;28;20094;-76
2022/08/22 06:30:54;;;;;;;14.43;4.60;;;;;;;;;;4982414;28;20055;-76
2022/08/22 06:33:25;;;;;;;11.35;4.70;;;;;;;;;;4985627;28;20882;-76
2022/08/22 06:39:06;;;;;;;17.30;5.20;;;;;;;;;;4987804;28;20867;-76
2022/08/22 06:41:36;;;;;;;17.60;5.00;;;;;;;;;;4987244;28;20066;-75
2022/08/22 06:44:05;;;;;;;10.70;4.57;;;;;;;;;;4991448;28;20074;-76
2022/08/22 06:46:34;;;;;;;13.15;5.53;;;;;;;;;;4997940;28;20112;-75
2022/08/22 06:49:02;;;;;;;12.88;5.03;;;;;;;;;;4998174;28;20847;-75
2022/08/22 06:51:29;;;;;;;13.05;5.10;;;;;;;;;;5006293;28;20073;-77
2022/08/22 06:53:59;;;;;;;11.95;5.13;;;;;;;;;;4987247;28;20180;-76
2022/08/22 06:56:30;;;;;;;14.90;5.30;;;;;;;;;;4986484;28;20152;-75
2022/08/22 06:58:58;;;;;;;14.63;5.30;;;;;;;;;;4982209;28;20059;-75
2022/08/22 07:01:30;;;;;;;15.15;5.20;;;;;;;;;;4986814;28;20061;-76
2022/08/22 07:03:59;;;;;;;11.63;4.88;;;;;;;;;;4980211;28;20059;-76
2022/08/22 07:06:48;;;;;;;18.15;5.15;;;;;;;;;;4977839;28;20832;-76
2022/08/22 07:09:31;;;;;;;16.80;5.47;;;;;;;;;;4987601;28;20057;-76
2022/08/22 07:12:00;;;;;;;15.43;5.35;;;;;;;;;;4986172;28;20072;-77
2022/08/22 07:14:29;;;;;;;16.30;6.05;;;;;;;;;;4980197;28;20061;-76
2022/08/22 07:17:02;;;;;;;18.60;5.70;;;;;;;;;;4980480;28;20510;-76
2022/08/22 07:19:35;;;;;;;13.82;5.43;;;;;;;;;;4978894;28;20062;-76
2022/08/22 07:22:12;;;;;;;15.13;5.40;;;;;;;;;;4980717;28;20117;-76
2022/08/22 07:24:43;;;;;;;13.20;5.35;;;;;;;;;;4984059;28;20053;-74
2022/08/22 07:27:25;;;;;;;16.35;5.50;;;;;;;;;;4984365;28;20051;-76
2022/08/22 07:29:59;;;;;;;15.68;5.38;;;;;;;;;;4979980;28;20055;-77
2022/08/22 07:32:40;;;;;;;12.00;5.50;;;;;;;;;;4983982;28;20062;-76
2022/08/22 07:35:10;;;;;;;15.65;5.07;;;;;;;;;;4984517;28;20886;-76
2022/08/22 07:37:53;;;;;;;16.00;5.22;;;;;;;;;;4978719;28;20509;-76
2022/08/22 07:40:26;;;;;;;19.70;5.88;;;;;;;;;;4981649;28;20251;-76
2022/08/22 07:42:59;;;;;;;20.80;6.22;;;;;;;;;;4979430;28;20089;-77
2022/08/22 07:45:33;;;;;;;11.35;5.30;;;;;;;;;;4979825;28;20055;-76
2022/08/22 07:48:20;;;;;;;11.52;5.47;;;;;;;;;;4983018;28;20062;-77
2022/08/22 07:51:16;;;;;;;14.38;5.38;;;;;;;;;;4983830;28;20149;-76
2022/08/22 07:53:53;;;;;;;15.82;5.28;;;;;;;;;;4984477;28;20055;-75
2022/08/22 07:56:30;;;;;;;20.40;5.35;;;;;;;;;;4980612;28;20056;-77
2022/08/22 07:59:00;;;;;;;15.82;5.20;;;;;;;;;;4983534;28;20061;-76
2022/08/22 08:01:28;;;;;;;15.35;5.32;;;;;;;;;;4986519;28;20059;-76
2022/08/22 08:03:58;;;;;;;16.08;5.50;;;;;;;;;;4982595;28;20047;-76
2022/08/22 08:06:26;;;;;;;15.73;5.40;;;;;;;;;;4980367;28;20059;-76
2022/08/22 08:08:55;;;;;;;16.55;4.88;;;;;;;;;;4983478;28;20047;-76
2022/08/22 08:11:24;;;;;;;12.20;4.97;;;;;;;;;;4979639;28;20058;-76
2022/08/22 08:13:57;;;;;;;14.77;5.47;;;;;;;;;;4978582;28;20110;-76
2022/08/22 08:16:27;;;;;;;10.00;4.50;;;;;;;;;;4979303;28;20164;-76
2022/08/22 08:18:56;;;;;;;13.00;5.25;;;;;;;;;;4981619;28;20051;-76
2022/08/22 08:21:31;;;;;;;15.05;5.22;;;;;;;;;;4980245;28;20055;-76
2022/08/22 08:23:59;;;;;;;14.45;4.82;;;;;;;;;;4977422;28;20047;-76
2022/08/22 08:26:35;;;;;;;12.82;5.35;;;;;;;;;;4979264;28;20051;-76
2022/08/22 08:29:06;;;;;;;19.58;5.85;;;;;;;;;;4982193;28;20055;-76
2022/08/22 08:31:36;;;;;;;23.58;4.82;;;;;;;;;;4982505;28;20058;-76
2022/08/22 08:34:13;;;;;;;17.23;4.90;;;;;;;;;;4983357;28;20505;-76
2022/08/22 08:36:47;;;;;;;14.73;4.97;;;;;;;;;;4986483;28;20939;-76
2022/08/22 08:39:26;;;;;;;13.07;5.47;;;;;;;;;;4980848;28;20061;-76
2022/08/22 08:42:04;;;;;;;13.35;4.63;;;;;;;;;;4988674;28;20114;-77
2022/08/22 08:44:36;;;;;;;10.85;4.88;;;;;;;;;;4986547;28;20057;-76
2022/08/22 08:47:09;;;;;;;12.07;4.80;;;;;;;;;;4985019;28;22823;-77
2022/08/22 08:49:59;;;;;;;11.73;4.65;;;;;;;;;;4993305;28;20087;-77
2022/08/22 08:52:42;;;;;;;12.10;4.82;;;;;;;;;;4989954;28;20046;-78
2022/08/22 08:55:09;;;;;;;;;;;;;;;;;;4996236;28;20058;-77
2022/08/22 08:58:06;;;;;;;14.10;4.60;;;;;;;;;;4991843;28;43509;-77
2022/08/22 09:00:51;;;;;;;12.73;4.32;;;;;;;;;;4979529;28;20055;-77
2022/08/22 09:03:24;;;;;;;13.50;4.55;;;;;;;;;;4982708;28;20055;-77
2022/08/22 09:06:31;;;;;;;15.00;3.97;;;;;;;;;;4975905;28;20058;-77
2022/08/22 09:08:59;;;;;;;9.25;3.83;;;;;;;;;;4986599;28;20054;-76
2022/08/22 09:11:46;;;;;;;10.88;4.53;;;;;;;;;;4977365;28;20047;-77
2022/08/22 09:14:40;;;;;;;13.15;4.45;;;;;;;;;;4988237;28;20137;-77
2022/08/22 09:17:29;;;;;;;14.10;4.82;;;;;;;;;;4982190;28;20058;-77
2022/08/22 09:19:56;;;;;;;8.55;3.92;;;;;;;;;;4982437;28;20054;-77
2022/08/22 09:22:23;;;;;;;14.32;4.55;;;;;;;;;;4980714;28;20137;-77
2022/08/22 09:25:15;;;;;;;12.52;4.20;;;;;;;;;;4984598;28;20055;-78
2022/08/22 09:28:01;;;;;;;15.48;5.05;;;;;;;;;;4981903;28;20051;-77
2022/08/22 09:30:47;;;;;;;10.57;4.65;;;;;;;;;;4982051;28;20047;-78
2022/08/22 09:33:21;;;;;;;16.00;4.47;;;;;;;;;;4982373;28;20368;-78
2022/08/22 09:35:59;;;;;;;11.25;3.30;;;;;;;;;;4991762;28;20054;-78
2022/08/22 09:38:34;;;;;;;10.63;3.33;;;;;;;;;;4985897;28;20145;-77
2022/08/22 09:41:13;;;;;;;11.70;4.30;;;;;;;;;;4983012;28;20051;-78
2022/08/22 09:43:47;;;;;;;13.82;4.05;;;;;;;;;;4983788;28;20102;-77
2022/08/22 09:46:26;;;;;;;12.55;4.35;;;;;;;;;;4986693;28;20063;-77
2022/08/22 09:49:11;;;;;;;11.60;3.97;;;;;;;;;;4986062;28;20062;-77
2022/08/22 09:51:41;;;;;;;8.65;3.42;;;;;;;;;;4978863;28;20109;-77
2022/08/22 09:54:08;;;;;;;10.05;2.97;;;;;;;;;;5000125;28;20093;-78
2022/08/22 09:56:38;;;;;;;15.35;3.70;;;;;;;;;;4986144;28;20039;-78
2022/08/22 09:59:06;;;;;;;27.33;5.05;;;;;;;;;;4989167;28;20228;-77
2022/08/22 10:01:44;;;;;;;12.52;3.63;;;;;;;;;;4980740;28;20059;-78
2022/08/22 10:04:15;;;;;;;13.82;3.38;;;;;;;;;;4996782;28;20202;-77
2022/08/22 10:06:58;;;;;;;9.65;3.17;;;;;;;;;;5001713;28;20855;-76
2022/08/22 10:09:28;;;;;;;12.13;3.38;;;;;;;;;;4990540;28;20823;-77
2022/08/22 10:12:04;;;;;;;10.73;3.20;;;;;;;;;;4980038;28;20066;-77
2022/08/22 10:14:39;;;;;;;12.88;3.15;;;;;;;;;;4985969;28;20039;-78
2022/08/22 10:17:18;;;;;;;10.80;3.30;;;;;;;;;;4983594;28;20082;-77
2022/08/22 10:19:53;;;;;;;10.13;2.58;;;;;;;;;;4990653;28;20596;-77
2022/08/22 10:22:40;;;;;;;15.18;3.15;;;;;;;;;;4999884;28;20049;-78
2022/08/22 10:25:16;;;;;;;15.23;2.75;;;;;;;;;;4997322;28;20058;-77
2022/08/22 10:27:51;;;;;;;16.60;3.00;;;;;;;;;;4982795;28;20059;-78
2022/08/22 10:30:21;;;;;;;8.93;2.67;;;;;;;;;;4985958;28;20063;-77
2022/08/22 10:32:54;;;;;;;8.55;2.70;;;;;;;;;;4993199;28;20884;-77
2022/08/22 10:35:28;;;;;;;9.10;3.00;;;;;;;;;;4991384;28;20765;-77
2022/08/22 10:38:06;;;;;;;8.50;2.60;;;;;;;;;;4997393;28;20055;-77
2022/08/22 10:40:45;;;;;;;11.15;2.70;;;;;;;;;;4992839;28;20497;-77
2022/08/22 10:43:16;;;;;;;9.20;2.35;;;;;;;;;;4989197;28;20063;-77
2022/08/22 10:45:46;;;;;;;10.93;2.90;;;;;;;;;;4985958;28;21053;-76
2022/08/22 10:48:21;;;;;;;9.07;2.33;;;;;;;;;;4984331;28;20059;-77
2022/08/22 10:50:50;;;;;;;11.52;2.58;;;;;;;;;;4978395;28;20888;-76
2022/08/22 10:53:34;;;;;;;13.65;2.75;;;;;;;;;;4982123;28;20051;-77
2022/08/22 10:56:10;;;;;;;9.85;2.45;;;;;;;;;;4983786;28;20882;-77
2022/08/22 10:58:50;;;;;;;7.55;2.60;;;;;;;;;;4986742;28;20066;-76
2022/08/22 11:01:19;;;;;;;12.82;3.05;;;;;;;;;;4979978;28;20065;-77
2022/08/22 11:04:14;;;;;;;13.27;3.22;;;;;;;;;;4991882;28;20047;-77
2022/08/22 11:06:41;;;;;;;10.27;2.40;;;;;;;;;;4974812;28;20106;-75
2022/08/22 11:09:26;;;;;;;10.40;2.40;;;;;;;;;;4985550;28;20062;-77
2022/08/22 11:11:59;;;;;;;7.85;2.53;;;;;;;;;;4995177;28;20061;-77
2022/08/22 11:14:34;;;;;;;10.75;2.50;;;;;;;;;;4984863;28;21224;-76
2022/08/22 11:17:02;;;;;;;7.13;2.45;;;;;;;;;;4979890;28;20036;-76
2022/08/22 11:20:07;;;;;;;5.90;1.90;;;;;;;;;;4990332;28;20057;-75
2022/08/22 11:22:50;;;;;;;8.30;2.90;;;;;;;;;;4975190;28;20059;-77
2022/08/22 11:25:24;;;;;;;10.18;2.33;;;;;;;;;;4981474;28;20054;-77
2022/08/22 11:28:23;;;;;;;8.23;2.10;;;;;;;;;;4982214;28;20079;-77
2022/08/22 11:31:03;;;;;;;8.18;2.25;;;;;;;;;;4982334;28;20055;-77
2022/08/22 11:33:44;;;;;;;7.53;2.22;;;;;;;;;;4981480;28;20805;-76
2022/08/22 11:36:13;;;;;;;12.98;2.10;;;;;;;;;;4989641;28;20121;-77
2022/08/22 11:38:56;;;;;;;8.68;2.20;;;;;;;;;;4983425;28;20057;-77
2022/08/22 11:41:32;;;;;;;7.15;2.20;;;;;;;;;;4984679;28;20057;-76
2022/08/22 11:44:09;;;;;;;8.27;2.15;;;;;;;;;;4990779;28;20061;-76
2022/08/22 11:46:38;;;;;;;9.25;2.45;;;;;;;;;;4980006;28;20138;-77
2022/08/22 11:49:12;;;;;;;6.03;2.17;;;;;;;;;;4982679;28;20047;-77
2022/08/22 11:51:42;;;;;;;8.00;2.20;;;;;;;;;;4978784;28;20928;-76
2022/08/22 11:54:18;;;;;;;8.55;2.20;;;;;;;;;;4982916;28;20059;-77
2022/08/22 11:57:06;;;;;;;8.57;2.53;;;;;;;;;;4987358;28;20130;-76
2022/08/22 11:59:40;;;;;;;10.48;2.92;;;;;;;;;;4983719;28;20063;-77
2022/08/22 12:02:26;;;;;;;9.30;2.20;;;;;;;;;;4995921;28;20051;-77
2022/08/22 12:05:20;;;;;;;8.40;2.22;;;;;;;;;;4982678;28;20050;-76
2022/08/22 12:08:11;;;;;;;9.35;2.50;;;;;;;;;;4980389;28;20065;-77
2022/08/22 12:11:02;;;;;;;7.25;2.17;;;;;;;;;;4987780;28;20054;-76
2022/08/22 12:13:51;;;;;;;9.88;2.20;;;;;;;;;;4987195;28;20187;-78
2022/08/22 12:16:41;;;;;;;10.20;2.30;;;;;;;;;;4980619;28;20882;-76
2022/08/22 12:19:18;;;;;;;10.05;2.83;;;;;;;;;;4982785;28;20212;-76
2022/08/22 12:22:07;;;;;;;8.82;2.53;;;;;;;;;;4987320;28;20058;-77
2022/08/22 12:24:44;;;;;;;9.50;2.58;;;;;;;;;;4983447;28;20109;-77
2022/08/22 12:27:20;;;;;;;10.50;2.63;;;;;;;;;;4982284;28;20057;-77
2022/08/22 12:29:55;;;;;;;11.18;2.85;;;;;;;;;;4976154;28;20062;-77
2022/08/22 12:32:48;;;;;;;9.13;3.03;;;;;;;;;;4983342;28;20050;-79
2022/08/22 12:35:27;;;;;;;9.50;2.28;;;;;;;;;;4973601;28;20055;-77
2022/08/22 12:38:15;;;;;;;6.47;2.22;;;;;;;;;;4984101;28;20056;-76
2022/08/22 12:41:09;;;;;;;7.68;2.00;;;;;;;;;;4981566;28;20182;-77
2022/08/22 12:43:53;;;;;;;6.80;2.15;;;;;;;;;;4986444;28;20498;-77
2022/08/22 12:46:38;;;;;;;10.95;2.53;;;;;;;;;;4983882;28;20055;-76
2022/08/22 12:49:26;;;;;;;11.18;2.63;;;;;;;;;;4987389;28;20562;-77
2022/08/22 12:52:00;;;;;;;6.68;2.00;;;;;;;;;;4987520;28;20065;-78
2022/08/22 12:54:53;;;;;;;9.63;2.17;;;;;;;;;;4987665;28;20058;-77
2022/08/22 12:57:26;;;;;;;7.55;1.92;;;;;;;;;;4975821;28;20102;-77
2022/08/22 12:59:55;;;;;;;5.15;2.08;;;;;;;;;;4981894;28;20055;-75
2022/08/22 13:02:27;;;;;;;4.20;1.85;;;;;;;;;;4982527;28;20057;-75
2022/08/22 13:04:58;;;;;;;8.50;2.00;;;;;;;;;;4987500;28;20054;-74
2022/08/22 13:07:30;;;;;;;6.28;2.13;;;;;;;;;;4982794;28;20055;-74
2022/08/22 13:10:00;;;;;;;5.65;1.60;;;;;;;;;;4980169;28;20059;-76
2022/08/22 13:12:35;;;;;;;7.05;1.83;;;;;;;;;;4988819;28;20061;-76
2022/08/22 13:15:24;;;;;;;10.68;1.90;;;;;;;;;;4986790;28;20134;-76
2022/08/22 13:17:52;;;;;;;5.80;1.90;;;;;;;;;;4981886;28;20055;-75
2022/08/22 13:20:25;;;;;;;8.50;1.90;;;;;;;;;;4989682;28;20612;-75
2022/08/22 13:22:53;;;;;;;5.70;1.55;;;;;;;;;;4979071;28;20171;-76
2022/08/22 13:25:22;;;;;;;10.07;2.25;;;;;;;;;;4977425;28;20077;-77
2022/08/22 13:28:02;;;;;;;6.85;2.20;;;;;;;;;;4979867;28;20847;-77
2022/08/22 13:30:31;;;;;;;5.47;1.80;;;;;;;;;;4978042;28;20054;-77
2022/08/22 13:33:13;;;;;;;7.00;2.35;;;;;;;;;;4985800;28;20055;-76
2022/08/22 13:35:43;;;;;;;6.57;2.33;;;;;;;;;;4988674;28;20149;-77
2022/08/22 13:38:22;;;;;;;5.82;2.03;;;;;;;;;;4976014;28;20058;-76
2022/08/22 13:40:53;;;;;;;6.30;2.15;;;;;;;;;;4981489;28;20076;-77
2022/08/22 13:43:22;;;;;;;7.00;2.00;;;;;;;;;;4980413;28;20150;-76
2022/08/22 13:45:55;;;;;;;9.30;2.13;;;;;;;;;;4977511;28;20047;-77
2022/08/22 13:48:28;;;;;;;11.55;2.17;;;;;;;;;;4980156;28;20059;-77
2022/08/22 13:51:11;;;;;;;6.20;1.95;;;;;;;;;;4983486;28;20114;-76
2022/08/22 13:53:40;;;;;;;7.60;1.83;;;;;;;;;;4979120;28;20059;-76
2022/08/22 13:56:27;;;;;;;8.57;2.13;;;;;;;;;;4982783;28;20174;-77
2022/08/22 13:59:00;;;;;;;6.20;2.05;;;;;;;;;;4993317;28;20154;-76
2022/08/22 14:01:43;;;;;;;6.95;2.10;;;;;;;;;;4983054;28;20055;-77
2022/08/22 14:04:16;;;;;;;10.50;1.88;;;;;;;;;;4977925;28;20046;-77
2022/08/22 14:06:57;;;;;;;8.32;2.03;;;;;;;;;;4978413;28;20059;-77
2022/08/22 14:09:24;;;;;;;6.30;2.22;;;;;;;;;;4995618;28;20073;-77
2022/08/22 14:12:07;;;;;;;7.43;1.90;;;;;;;;;;4980633;28;20066;-77
2022/08/22 14:14:39;;;;;;;7.60;1.95;;;;;;;;;;4987000;28;20130;-77
2022/08/22 14:17:07;;;;;;;5.50;1.90;;;;;;;;;;4991714;28;20085;-77
2022/08/22 14:19:38;;;;;;;8.55;2.20;;;;;;;;;;4978548;28;20044;-77
2022/08/22 14:22:25;;;;;;;6.82;1.90;;;;;;;;;;4979525;28;20066;-76
2022/08/22 14:25:03;;;;;;;7.25;2.20;;;;;;;;;;4981454;28;20062;-76
2022/08/22 14:27:38;;;;;;;5.63;1.80;;;;;;;;;;4975341;28;20062;-77
2022/08/22 14:30:05;;;;;;;;;;;;;;;;;;4981537;28;20059;-76
2022/08/22 14:32:39;;;;;;;8.00;2.20;;;;;;;;;;4981439;28;44675;-77
2022/08/22 14:35:14;;;;;;;5.80;1.90;;;;;;;;;;4977560;28;20058;-76
2022/08/22 14:37:57;;;;;;;8.93;2.22;;;;;;;;;;4981650;28;20058;-76
2022/08/22 14:40:32;;;;;;;6.75;2.00;;;;;;;;;;4995402;28;20134;-76
2022/08/22 14:43:08;;;;;;;8.43;2.00;;;;;;;;;;4990859;28;20059;-76
2022/08/22 14:45:37;;;;;;;7.60;2.15;;;;;;;;;;4980958;28;20054;-76
2022/08/22 14:48:05;;;;;;;5.57;1.95;;;;;;;;;;4977866;28;20449;-77
2022/08/22 14:50:54;;;;;;;7.28;1.90;;;;;;;;;;4980755;28;20081;-77
2022/08/22 14:53:33;;;;;;;6.05;1.75;;;;;;;;;;4977246;28;20135;-78
2022/08/22 14:56:20;;;;;;;4.03;1.70;;;;;;;;;;4981644;28;20062;-77
2022/08/22 14:58:55;;;;;;;8.68;2.20;;;;;;;;;;4981438;28;21664;-78
2022/08/22 15:01:25;;;;;;;5.65;2.00;;;;;;;;;;4983360;28;20058;-76
2022/08/22 15:03:56;;;;;;;;;;;;;;;;;;4982725;28;20082;-77
2022/08/22 15:06:40;;;;;;;6.28;1.80;;;;;;;;;;4983436;28;43770;-77
2022/08/22 15:09:49;;;;;;;11.32;2.17;;;;;;;;;;4982769;28;20098;-76
2022/08/22 15:12:20;;;;;;;4.93;1.83;;;;;;;;;;4993443;28;20146;-76
2022/08/22 15:14:48;;;;;;;9.90;2.10;;;;;;;;;;5003089;28;20745;-76
2022/08/22 15:17:33;;;;;;;5.60;1.77;;;;;;;;;;5005710;28;20055;-76
2022/08/22 15:20:09;;;;;;;5.30;1.95;;;;;;;;;;4998714;28;20812;-76
2022/08/22 15:22:39;;;;;;;9.20;2.20;;;;;;;;;;4997956;28;20073;-78
2022/08/22 15:25:20;;;;;;;7.93;2.33;;;;;;;;;;5003538;28;20055;-77
2022/08/22 15:27:54;;;;;;;3.97;1.80;;;;;;;;;;5001869;28;20936;-76
2022/08/22 15:30:33;;;;;;;10.30;2.10;;;;;;;;;;5001766;28;20082;-76
2022/08/22 15:33:09;;;;;;;6.97;2.20;;;;;;;;;;5007300;28;20080;-77
2022/08/22 15:35:36;;;;;;;10.35;1.98;;;;;;;;;;5002699;28;20050;-76